Time;durP1;ratioP1;P1;durP2;ratioP2;P2;SDS_P1;SDS_P2;PMS_P1;PMS_P2;Temp;Humidity;BMP_temperature;BMP_pressure;BME280_temperature;BME280_humidity;BME280_pressure;Samples;Min_cycle;Max_cycle;Signal;HPM_P1;HPM_P2
2021/07/08 00:01:34;;;;;;;;;;;19.20;99.90;;;;;;5074971;28;19908;-86
2021/07/08 00:03:59;;;;;;;;;;;19.30;99.90;;;;;;5075225;28;19948;-87
2021/07/08 00:06:25;;;;;;;;;;;19.30;99.90;;;;;;5075347;28;19911;-86
2021/07/08 00:08:50;;;;;;;;;;;19.30;99.90;;;;;;5074813;28;19916;-85
2021/07/08 00:11:16;;;;;;;;;;;19.20;99.90;;;;;;5074220;28;19966;-86
2021/07/08 00:13:41;;;;;;;;;;;19.20;99.90;;;;;;5076484;28;20375;-85
2021/07/08 00:16:07;;;;;;;;;;;19.20;99.90;;;;;;5074867;28;19904;-86
2021/07/08 00:18:32;;;;;;;;;;;19.10;99.90;;;;;;5075054;28;19955;-86
2021/07/08 00:20:58;;;;;;;;;;;19.10;99.90;;;;;;5074542;28;20378;-86
2021/07/08 00:23:23;;;;;;;;;;;19.00;99.90;;;;;;5074127;28;19905;-86
2021/07/08 00:25:50;;;;;;;;;;;19.00;99.90;;;;;;5074749;28;19911;-86
2021/07/08 00:28:15;;;;;;;;;;;18.80;99.90;;;;;;5074505;28;19905;-86
2021/07/08 00:30:42;;;;;;;;;;;18.80;99.90;;;;;;5074567;28;19947;-86
2021/07/08 00:33:08;;;;;;;;;;;18.80;99.90;;;;;;5076658;28;19908;-87
2021/07/08 00:35:33;;;;;;;;;;;18.70;99.90;;;;;;5074866;28;19912;-86
2021/07/08 00:37:59;;;;;;;;;;;18.70;99.90;;;;;;5074607;28;19919;-85
2021/07/08 00:40:25;;;;;;;;;;;18.80;99.90;;;;;;5074834;28;19950;-86
2021/07/08 00:42:50;;;;;;;;;;;18.90;99.90;;;;;;5074481;28;20291;-88
2021/07/08 00:45:17;;;;;;;;;;;18.80;99.90;;;;;;5074951;28;20378;-86
2021/07/08 00:47:42;;;;;;;;;;;18.80;99.90;;;;;;5074628;28;20399;-86
2021/07/08 00:50:08;;;;;;;;;;;18.80;99.90;;;;;;5074413;28;19908;-86
2021/07/08 00:52:34;;;;;;;;;;;18.80;99.90;;;;;;5076337;28;19935;-86
2021/07/08 00:55:00;;;;;;;;;;;18.80;99.90;;;;;;5074927;28;20340;-86
2021/07/08 00:57:25;;;;;;;;;;;18.90;99.90;;;;;;5074937;28;19905;-86
2021/07/08 00:59:53;;;;;;;;;;;18.90;99.90;;;;;;5074663;28;20375;-86
2021/07/08 01:02:19;;;;;;;;;;;18.80;99.90;;;;;;5074342;28;19915;-86
2021/07/08 01:04:45;;;;;;;;;;;18.80;99.90;;;;;;5075233;28;19954;-87
2021/07/08 01:07:12;;;;;;;;;;;18.80;99.90;;;;;;5076108;28;19908;-87
2021/07/08 01:09:38;;;;;;;;;;;18.70;99.90;;;;;;5075182;28;20344;-86
2021/07/08 01:12:04;;;;;;;;;;;18.70;99.90;;;;;;5074248;28;19951;-86
2021/07/08 01:14:30;;;;;;;;;;;18.70;99.90;;;;;;5074753;28;19904;-86
2021/07/08 01:16:55;;;;;;;;;;;18.70;99.90;;;;;;5073664;28;19968;-86
2021/07/08 01:19:21;;;;;;;;;;;18.70;99.90;;;;;;5074857;28;20399;-86
2021/07/08 01:21:46;;;;;;;;;;;18.70;99.90;;;;;;5074457;28;19999;-86
2021/07/08 01:24:12;;;;;;;;;;;18.80;99.90;;;;;;5074698;28;20011;-85
2021/07/08 01:26:38;;;;;;;;;;;18.80;99.90;;;;;;5074585;28;19999;-86
2021/07/08 01:29:03;;;;;;;;;;;18.80;99.90;;;;;;5074510;28;19908;-86
2021/07/08 01:31:29;;;;;;;;;;;18.80;99.90;;;;;;5074491;28;19954;-86
2021/07/08 01:33:54;;;;;;;;;;;18.80;99.90;;;;;;5074082;28;20030;-85
2021/07/08 01:36:20;;;;;;;;;;;18.80;99.90;;;;;;5074910;28;19905;-85
2021/07/08 01:38:46;;;;;;;;;;;18.80;99.90;;;;;;5074700;28;19920;-86
2021/07/08 01:41:11;;;;;;;;;;;18.80;99.90;;;;;;5075020;28;19911;-86
2021/07/08 01:43:38;;;;;;;;;;;18.80;99.90;;;;;;5073714;28;19905;-86
2021/07/08 01:46:05;;;;;;;;;;;18.80;99.90;;;;;;5074479;28;19905;-87
2021/07/08 01:48:31;;;;;;;;;;;18.70;99.90;;;;;;5074588;28;19920;-86
2021/07/08 01:50:56;;;;;;;;;;;18.60;99.90;;;;;;5076925;28;19908;-86
2021/07/08 01:53:22;;;;;;;;;;;18.60;99.90;;;;;;5078239;28;21388;-87
2021/07/08 01:55:47;;;;;;;;;;;18.60;99.90;;;;;;5078853;28;19904;-86
2021/07/08 01:58:13;;;;;;;;;;;18.50;99.90;;;;;;5078043;28;19908;-86
2021/07/08 02:00:38;;;;;;;;;;;18.40;99.90;;;;;;5078301;28;19904;-87
2021/07/08 02:03:04;;;;;;;;;;;18.30;99.90;;;;;;5078881;28;20006;-86
2021/07/08 02:05:29;;;;;;;;;;;18.30;99.90;;;;;;5077838;28;20249;-86
2021/07/08 02:07:55;;;;;;;;;;;18.20;99.90;;;;;;5077758;28;20351;-86
2021/07/08 02:10:21;;;;;;;;;;;18.10;99.90;;;;;;5077672;28;19977;-87
2021/07/08 02:12:47;;;;;;;;;;;18.10;99.90;;;;;;5078163;28;20375;-86
2021/07/08 02:15:14;;;;;;;;;;;18.10;99.90;;;;;;5077860;28;19930;-88
2021/07/08 02:17:39;;;;;;;;;;;18.10;99.90;;;;;;5078377;28;19943;-86
2021/07/08 02:20:06;;;;;;;;;;;18.00;99.90;;;;;;5077482;28;19979;-87
2021/07/08 02:22:32;;;;;;;;;;;18.00;99.90;;;;;;5079916;28;19904;-86
2021/07/08 02:24:58;;;;;;;;;;;18.00;99.90;;;;;;5078110;28;19958;-87
2021/07/08 02:27:24;;;;;;;;;;;18.00;99.90;;;;;;5078024;28;19904;-85
2021/07/08 02:29:49;;;;;;;;;;;18.00;99.90;;;;;;5079539;28;19908;-86
2021/07/08 02:32:15;;;;;;;;;;;17.90;99.90;;;;;;5078140;28;19908;-86
2021/07/08 02:34:40;;;;;;;;;;;18.00;99.90;;;;;;5077578;28;20090;-86
2021/07/08 02:37:06;;;;;;;;;;;17.90;99.90;;;;;;5079751;28;19904;-86
2021/07/08 02:39:32;;;;;;;;;;;17.90;99.90;;;;;;5077383;28;20375;-86
2021/07/08 02:41:57;;;;;;;;;;;18.00;99.90;;;;;;5078669;28;19987;-86
2021/07/08 02:44:23;;;;;;;;;;;18.00;99.90;;;;;;5077894;28;20501;-86
2021/07/08 02:46:48;;;;;;;;;;;18.10;99.90;;;;;;5077504;28;19908;-86
2021/07/08 02:49:14;;;;;;;;;;;18.10;99.90;;;;;;5077660;28;19915;-85
2021/07/08 02:51:39;;;;;;;;;;;18.00;99.90;;;;;;5077093;28;19912;-88
2021/07/08 02:54:05;;;;;;;;;;;18.00;99.90;;;;;;5078710;28;19908;-85
2021/07/08 02:56:30;;;;;;;;;;;17.90;99.90;;;;;;5077566;28;19905;-85
2021/07/08 02:58:56;;;;;;;;;;;17.90;99.90;;;;;;5077261;28;19905;-87
2021/07/08 03:01:21;;;;;;;;;;;17.90;99.90;;;;;;5077684;28;19919;-85
2021/07/08 03:03:46;;;;;;;;;;;17.90;99.90;;;;;;5077261;28;19927;-86
2021/07/08 03:06:12;;;;;;;;;;;18.00;99.90;;;;;;5077337;28;19908;-87
2021/07/08 03:08:37;;;;;;;;;;;18.00;99.90;;;;;;5077002;28;20042;-86
2021/07/08 03:11:03;;;;;;;;;;;18.00;99.90;;;;;;5077452;28;19911;-86
2021/07/08 03:13:28;;;;;;;;;;;18.00;99.90;;;;;;5076646;28;19912;-86
2021/07/08 03:15:54;;;;;;;;;;;17.90;99.90;;;;;;5076746;28;20343;-86
2021/07/08 03:18:19;;;;;;;;;;;17.90;99.90;;;;;;5077343;28;19908;-85
2021/07/08 03:20:46;;;;;;;;;;;17.90;99.90;;;;;;5079338;28;19904;-85
2021/07/08 03:23:11;;;;;;;;;;;17.90;99.90;;;;;;5077271;28;19904;-86
2021/07/08 03:25:37;;;;;;;;;;;17.80;99.90;;;;;;5076966;28;19931;-85
2021/07/08 03:28:02;;;;;;;;;;;17.80;99.90;;;;;;5077364;28;20256;-85
2021/07/08 03:30:30;;;;;;;;;;;17.90;99.90;;;;;;5076982;28;20159;-86
2021/07/08 03:32:57;;;;;;;;;;;18.00;99.90;;;;;;5076950;28;19904;-86
2021/07/08 03:35:23;;;;;;;;;;;18.00;99.90;;;;;;5076803;28;19905;-86
2021/07/08 03:37:48;;;;;;;;;;;18.00;99.90;;;;;;5076374;28;19962;-86
2021/07/08 03:40:15;;;;;;;;;;;17.90;99.90;;;;;;5076355;28;20382;-85
2021/07/08 03:42:40;;;;;;;;;;;17.80;99.90;;;;;;5077030;28;19904;-86
2021/07/08 03:45:07;;;;;;;;;;;17.70;99.90;;;;;;5076588;28;20418;-85
2021/07/08 03:47:33;;;;;;;;;;;17.70;99.90;;;;;;5076958;28;20383;-86
2021/07/08 03:49:58;;;;;;;;;;;17.60;99.90;;;;;;5077096;28;19919;-86
2021/07/08 03:52:24;;;;;;;;;;;17.60;99.90;;;;;;5076863;28;19905;-86
2021/07/08 03:54:50;;;;;;;;;;;17.60;99.90;;;;;;5078401;28;19987;-86
2021/07/08 03:57:16;;;;;;;;;;;17.60;99.90;;;;;;5075203;28;19904;-86
2021/07/08 03:59:41;;;;;;;;;;;17.70;99.90;;;;;;5077276;28;19908;-86
2021/07/08 04:02:06;;;;;;;;;;;17.70;99.90;;;;;;5076437;28;19973;-85
2021/07/08 04:04:37;;;;;;;;;;;17.70;99.90;;;;;;5075765;28;20290;-86
2021/07/08 04:07:03;;;;;;;;;;;17.80;99.90;;;;;;5076268;28;19908;-85
2021/07/08 04:09:29;;;;;;;;;;;17.70;99.90;;;;;;5078160;28;19916;-85
2021/07/08 04:12:25;;;;;;;;;;;17.80;99.90;;;;;;5074084;28;19912;-85
2021/07/08 04:17:28;;;;;;;;;;;17.80;99.90;;;;;;5158125;23;20290;-85
2021/07/08 04:19:53;;;;;;;;;;;17.90;99.90;;;;;;5074387;28;19905;-85
2021/07/08 04:22:19;;;;;;;;;;;17.90;99.90;;;;;;5074629;28;19904;-87
2021/07/08 04:24:44;;;;;;;;;;;17.90;99.90;;;;;;5063560;28;20397;-85
2021/07/08 04:27:10;;;;;;;;;;;18.00;99.90;;;;;;5053458;28;19991;-86
2021/07/08 04:29:35;;;;;;;;;;;18.00;99.90;;;;;;5053969;28;19992;-85
2021/07/08 04:32:01;;;;;;;;;;;18.00;99.90;;;;;;5053884;28;20417;-86
2021/07/08 04:34:26;;;;;;;;;;;18.00;99.90;;;;;;5055202;28;19912;-86
2021/07/08 04:36:52;;;;;;;;;;;18.00;99.90;;;;;;5054324;28;19911;-85
2021/07/08 04:39:17;;;;;;;;;;;18.00;99.90;;;;;;5057658;28;19904;-86
2021/07/08 04:41:43;;;;;;;;;;;18.10;99.90;;;;;;5056507;28;19999;-86
2021/07/08 04:44:09;;;;;;;;;;;18.00;99.90;;;;;;5070331;28;19912;-87
2021/07/08 04:49:32;;;;;;;;;;;17.90;99.90;;;;;;5200290;23;20310;-86
2021/07/08 04:51:57;;;;;;;;;;;18.00;99.90;;;;;;5035289;28;19923;-86
2021/07/08 04:54:23;;;;;;;;;;;18.20;99.90;;;;;;5025505;28;19905;-87
2021/07/08 04:56:48;;;;;;;;;;;18.20;99.90;;;;;;5017004;28;20375;-86
2021/07/08 04:59:14;;;;;;;;;;;18.30;99.90;;;;;;5016852;28;19908;-87
2021/07/08 05:01:39;;;;;;;;;;;18.30;99.90;;;;;;5032456;28;19911;-86
2021/07/08 05:04:05;;;;;;;;;;;18.40;99.90;;;;;;5015862;28;20011;-86
2021/07/08 05:06:30;;;;;;;;;;;18.40;99.90;;;;;;5016303;28;19913;-86
2021/07/08 05:08:56;;;;;;;;;;;18.40;99.90;;;;;;5033243;28;19915;-86
2021/07/08 05:11:21;;;;;;;;;;;18.50;99.90;;;;;;5016756;28;19909;-86
2021/07/08 05:13:46;;;;;;;;;;;18.60;99.90;;;;;;5016743;28;19988;-86
2021/07/08 05:16:12;;;;;;;;;;;18.60;99.90;;;;;;5014811;28;20352;-87
2021/07/08 05:18:37;;;;;;;;;;;18.70;99.90;;;;;;5014187;28;20051;-87
2021/07/08 05:21:03;;;;;;;;;;;18.90;99.90;;;;;;5014579;28;19958;-86
2021/07/08 05:23:31;;;;;;;;;;;19.00;99.90;;;;;;5014926;28;19905;-87
2021/07/08 05:25:56;;;;;;;;;;;19.10;99.90;;;;;;5015580;28;19909;-87
2021/07/08 05:28:22;;;;;;;;;;;19.20;99.90;;;;;;5012962;28;19909;-87
2021/07/08 05:30:47;;;;;;;;;;;19.20;99.90;;;;;;5013835;28;19916;-87
2021/07/08 05:33:13;;;;;;;;;;;19.20;99.90;;;;;;5031375;28;19912;-87
2021/07/08 05:35:38;;;;;;;;;;;19.20;99.90;;;;;;5032940;28;20352;-87
2021/07/08 05:38:05;;;;;;;;;;;19.20;99.90;;;;;;5034405;28;19928;-86
2021/07/08 05:40:31;;;;;;;;;;;19.20;99.90;;;;;;5034466;28;19913;-86
2021/07/08 05:42:56;;;;;;;;;;;19.20;99.90;;;;;;5034702;28;19909;-87
2021/07/08 05:45:22;;;;;;;;;;;19.30;99.90;;;;;;5034940;28;20130;-86
2021/07/08 05:47:48;;;;;;;;;;;19.30;99.90;;;;;;5034691;28;20067;-86
2021/07/08 05:50:13;;;;;;;;;;;19.20;99.90;;;;;;5017397;28;19986;-86
2021/07/08 05:52:39;;;;;;;;;;;19.20;99.90;;;;;;5035511;28;19905;-88
2021/07/08 05:55:05;;;;;;;;;;;19.30;99.90;;;;;;5037519;28;20303;-86
2021/07/08 05:57:31;;;;;;;;;;;19.30;99.90;;;;;;5047476;28;19909;-86
2021/07/08 05:59:56;;;;;;;;;;;19.30;99.90;;;;;;5033923;28;19959;-87
2021/07/08 06:02:22;;;;;;;;;;;19.40;99.90;;;;;;5034518;28;19909;-87
2021/07/08 06:04:47;;;;;;;;;;;19.40;99.90;;;;;;5031147;28;20284;-87
2021/07/08 06:07:13;;;;;;;;;;;19.50;99.90;;;;;;5000785;28;19965;-86
2021/07/08 06:09:38;;;;;;;;;;;19.50;99.90;;;;;;4999430;28;20340;-87
2021/07/08 06:12:04;;;;;;;;;;;19.50;99.90;;;;;;5018616;28;19912;-87
2021/07/08 06:14:30;;;;;;;;;;;19.60;99.90;;;;;;5020433;28;19905;-88
2021/07/08 06:16:55;;;;;;;;;;;19.80;99.90;;;;;;5002341;28;19905;-88
2021/07/08 06:19:21;;;;;;;;;;;19.90;99.90;;;;;;5036327;28;20003;-87
2021/07/08 06:21:48;;;;;;;;;;;19.90;99.90;;;;;;4999658;28;20260;-87
2021/07/08 06:24:14;;;;;;;;;;;19.90;99.90;;;;;;5032182;28;19956;-87
2021/07/08 06:26:40;;;;;;;;;;;20.00;99.90;;;;;;4998499;28;19905;-88
2021/07/08 06:29:05;;;;;;;;;;;20.00;99.90;;;;;;5000040;28;20364;-86
2021/07/08 06:31:31;;;;;;;4.07;2.92;;;19.90;99.90;;;;;;5000614;28;20224;-87
2021/07/08 06:33:57;;;;;;;3.88;3.00;;;19.90;99.90;;;;;;4999930;28;20034;-87
2021/07/08 06:36:22;;;;;;;;;;;19.90;99.90;;;;;;5019034;28;20030;-87
2021/07/08 06:38:47;;;;;;;;;;;19.90;99.90;;;;;;5002404;28;19955;-86
2021/07/08 06:41:13;;;;;;;;;;;19.90;99.90;;;;;;5001221;28;20363;-87
2021/07/08 06:43:38;;;;;;;;;;;20.10;99.90;;;;;;4999413;28;19905;-86
2021/07/08 06:46:04;;;;;;;;;;;20.10;99.90;;;;;;5031541;28;19905;-85
2021/07/08 06:48:29;;;;;;;;;;;20.10;99.90;;;;;;4997825;28;19905;-87
2021/07/08 06:50:55;;;;;;;;;;;20.00;99.90;;;;;;4997862;28;19913;-87
2021/07/08 06:53:20;;;;;;;;;;;20.00;99.90;;;;;;5015988;28;19928;-86
2021/07/08 06:55:47;;;;;;;;;;;20.00;99.90;;;;;;5033764;28;19959;-87
2021/07/08 06:58:13;;;;;;;;;;;20.00;99.90;;;;;;5033825;28;19905;-87
2021/07/08 07:00:40;;;;;;;;;;;20.10;99.90;;;;;;5033868;28;19912;-87
2021/07/08 07:03:06;;;;;;;;;;;20.00;99.90;;;;;;5033424;28;19905;-86
2021/07/08 07:05:32;;;;;;;;;;;20.00;99.90;;;;;;5033741;28;20368;-86
2021/07/08 07:07:58;;;;;;;;;;;19.90;99.90;;;;;;5033720;28;20342;-86
2021/07/08 07:10:24;;;;;;;;;;;19.90;99.90;;;;;;5033459;28;19913;-86
2021/07/08 07:12:52;;;;;;;;;;;19.80;99.90;;;;;;5034663;28;19905;-85
2021/07/08 07:15:18;;;;;;;;;;;19.80;99.90;;;;;;5033425;28;19909;-85
2021/07/08 07:17:47;;;;;;;;;;;20.10;99.90;;;;;;5033414;28;19951;-86
2021/07/08 07:20:13;;;;;;;;;;;21.20;99.90;;;;;;5033227;28;20224;-86
2021/07/08 07:22:39;;;;;;;4.30;2.85;;;22.30;99.90;;;;;;5016622;28;19931;-86
2021/07/08 07:25:06;;;;;;;3.05;2.40;;;22.90;99.90;;;;;;5032874;28;20021;-85
2021/07/08 07:27:32;;;;;;;4.75;2.67;;;23.20;99.90;;;;;;5033768;28;20067;-86
2021/07/08 07:30:02;;;;;;;;;;;22.70;99.90;;;;;;5033615;28;20030;-86
2021/07/08 07:32:27;;;;;;;;;;;22.10;99.90;;;;;;4995902;28;19910;-85
2021/07/08 07:34:53;;;;;;;;;;;21.60;99.90;;;;;;4996708;28;19960;-85
2021/07/08 07:37:18;;;;;;;;;;;21.30;99.90;;;;;;4996066;28;19916;-85
2021/07/08 07:39:44;;;;;;;;;;;21.60;99.90;;;;;;4996426;28;19910;-86
2021/07/08 07:42:09;;;;;;;;;;;22.20;99.90;;;;;;4996823;28;19975;-85
2021/07/08 07:44:35;;;;;;;;;;;22.70;99.90;;;;;;4997075;28;19949;-85
2021/07/08 07:47:00;;;;;;;;;;;23.20;99.90;;;;;;4995231;28;20319;-85
2021/07/08 07:49:25;;;;;;;;;;;23.60;99.90;;;;;;4994998;28;19914;-85
2021/07/08 07:51:51;;;;;;;;;;;23.50;99.90;;;;;;4996030;28;19972;-86
2021/07/08 07:54:16;;;;;;;;;;;24.10;99.90;;;;;;4995132;28;19910;-86
2021/07/08 07:56:42;;;;;;;;;;;24.40;99.90;;;;;;4995607;28;19971;-86
2021/07/08 07:59:07;;;;;;;;;;;25.10;99.90;;;;;;4995161;28;19906;-85
2021/07/08 08:01:33;;;;;;;;;;;25.20;99.90;;;;;;4995444;28;19928;-85
2021/07/08 08:04:00;;;;;;;;;;;25.70;99.90;;;;;;4995471;28;19912;-85
2021/07/08 08:09:09;;;;;;;;;;;24.90;99.90;;;;;;5013030;28;20398;-85
2021/07/08 08:11:35;;;;;;;;;;;24.30;99.90;;;;;;5012321;28;19909;-85
2021/07/08 08:14:00;;;;;;;;;;;23.50;99.90;;;;;;5012835;28;19913;-85
2021/07/08 08:16:28;;;;;;;;;;;23.00;99.90;;;;;;4996995;28;19912;-80
2021/07/08 08:18:54;;;;;;;;;;;22.90;99.90;;;;;;5015568;28;19992;-80
2021/07/08 08:21:19;;;;;;;;;;;22.90;99.90;;;;;;5013028;28;20351;-79
2021/07/08 08:23:44;;;;;;;;;;;22.90;99.90;;;;;;4996386;28;19909;-79
2021/07/08 08:26:10;;;;;;;;;;;22.80;99.90;;;;;;4995083;28;19912;-79
2021/07/08 08:28:35;;;;;;;;;;;22.70;99.90;;;;;;4995728;28;20340;-79
2021/07/08 08:31:01;;;;;;;;;;;22.60;99.90;;;;;;5014073;28;19988;-80
2021/07/08 08:33:26;;;;;;;;;;;22.50;99.90;;;;;;4996622;28;19905;-79
2021/07/08 08:35:52;;;;;;;;;;;22.40;99.90;;;;;;5014287;28;19909;-80
2021/07/08 08:38:17;;;;;;;;;;;22.40;99.90;;;;;;5005717;28;19909;-80
2021/07/08 08:40:43;;;;;;;;;;;22.30;99.90;;;;;;5009884;28;19916;-81
2021/07/08 08:43:08;;;;;;;;;;;22.40;99.90;;;;;;5010772;28;19909;-80
2021/07/08 08:45:34;;;;;;;;;;;22.50;99.90;;;;;;5016460;28;19905;-80
2021/07/08 08:48:01;;;;;;;;;;;22.50;99.90;;;;;;5015890;28;19967;-80
2021/07/08 08:50:32;;;;;;;;;;;22.70;99.90;;;;;;5015461;28;19963;-80
2021/07/08 08:52:57;;;;;;;;;;;22.50;99.90;;;;;;5016084;28;19976;-80
2021/07/08 08:55:23;;;;;;;;;;;22.40;99.90;;;;;;5032636;28;20098;-79
2021/07/08 08:57:48;;;;;;;;;;;22.60;99.90;;;;;;5015795;28;19916;-80
2021/07/08 09:00:23;;;;;;;;;;;22.70;99.90;;;;;;5033018;28;19976;-80
2021/07/08 09:02:58;;;;;;;;;;;22.80;99.90;;;;;;5015386;28;19975;-80
2021/07/08 09:05:23;;;;;;;;;;;22.70;99.90;;;;;;5034313;28;20328;-80
2021/07/08 09:07:49;;;;;;;;;;;22.70;99.90;;;;;;5015372;28;20008;-80
2021/07/08 09:10:15;;;;;;;;;;;22.50;99.90;;;;;;5015533;28;20003;-80
2021/07/08 09:12:41;;;;;;;;;;;22.30;99.90;;;;;;5033751;28;20665;-80
2021/07/08 09:15:20;;;;;;;;;;;22.20;99.90;;;;;;5034331;28;19905;-80
2021/07/08 09:17:45;;;;;;;;;;;22.00;99.90;;;;;;5015414;28;19905;-80
2021/07/08 09:20:13;;;;;;;;;;;21.90;99.90;;;;;;5015687;28;20276;-80
2021/07/08 09:22:39;;;;;;;;;;;21.80;99.90;;;;;;5033369;28;19905;-80
2021/07/08 09:25:20;;;;;;;;;;;21.80;99.90;;;;;;5014863;28;19960;-80
2021/07/08 09:28:05;;;;;;;;;;;21.80;99.90;;;;;;5015016;28;20386;-80
2021/07/08 09:30:31;;;;;;;;;;;21.70;99.90;;;;;;5014636;28;20356;-79
2021/07/08 09:32:56;;;;;;;;;;;21.70;99.90;;;;;;5032629;28;19916;-79
2021/07/08 09:35:31;;;;;;;;;;;21.70;99.90;;;;;;5031363;28;19908;-79
2021/07/08 09:38:10;;;;;;;;;;;21.60;99.90;;;;;;5031544;28;19996;-80
2021/07/08 09:40:35;;;;;;;;;;;21.70;99.90;;;;;;5048801;28;19905;-80
2021/07/08 09:43:01;;;;;;;;;;;21.60;99.90;;;;;;5032954;28;19912;-79
2021/07/08 09:45:27;;;;;;;;;;;21.70;99.90;;;;;;5032138;28;19932;-79
2021/07/08 09:48:07;;;;;;;;;;;21.70;99.90;;;;;;5033423;28;19995;-79
2021/07/08 09:50:32;;;;;;;;;;;21.60;99.90;;;;;;5031237;28;19935;-79
2021/07/08 09:53:06;;;;;;;;;;;21.60;99.90;;;;;;5017642;28;20443;-79
2021/07/08 09:55:56;;;;;;;;;;;21.60;99.90;;;;;;5013065;28;19905;-79
2021/07/08 09:58:21;;;;;;;;;;;21.50;99.90;;;;;;5028045;28;20028;-79
2021/07/08 10:00:47;;;;;;;;;;;21.60;99.90;;;;;;4995749;28;20283;-79
2021/07/08 10:03:13;;;;;;;;;;;21.60;99.90;;;;;;4994901;28;19910;-79
2021/07/08 10:05:39;;;;;;;;;;;21.60;99.90;;;;;;4995675;28;20352;-79
2021/07/08 10:08:06;;;;;;;;;;;21.50;99.90;;;;;;5013831;28;19905;-79
2021/07/08 10:10:31;;;;;;;;;;;21.40;99.90;;;;;;4995852;28;19914;-79
2021/07/08 10:12:57;;;;;;;;;;;21.30;99.90;;;;;;4998452;28;19913;-80
2021/07/08 10:15:23;;;;;;;;;;;21.40;99.90;;;;;;5029621;28;19909;-79
2021/07/08 10:17:49;;;;;;;;;;;21.30;99.90;;;;;;5034366;28;19980;-79
2021/07/08 10:20:15;;;;;;;;;;;21.30;99.90;;;;;;5018184;28;20390;-79
2021/07/08 10:22:40;;;;;;;;;;;21.30;99.90;;;;;;5037222;28;20253;-79
2021/07/08 10:25:07;;;;;;;;;;;21.20;99.90;;;;;;5016611;28;19913;-79
2021/07/08 10:27:35;;;;;;;;;;;21.20;99.90;;;;;;5035643;28;19916;-79
2021/07/08 10:30:01;;;;;;;;;;;21.20;99.90;;;;;;5017825;28;20371;-79
2021/07/08 10:32:27;;;;;;;;;;;21.20;99.90;;;;;;5018670;28;19940;-79
2021/07/08 10:34:53;;;;;;;;;;;21.10;99.90;;;;;;5017977;28;19967;-79
2021/07/08 10:37:40;;;;;;;;;;;21.10;99.90;;;;;;5035508;28;19905;-78
2021/07/08 10:40:06;;;;;;;;;;;21.10;99.90;;;;;;5036302;28;20318;-79
2021/07/08 10:42:45;;;;;;;;;;;21.20;99.90;;;;;;5034977;28;19909;-78
2021/07/08 10:45:23;;;;;;;;;;;21.20;99.90;;;;;;5033432;28;20394;-79
2021/07/08 10:47:49;;;;;;;;;;;21.00;99.90;;;;;;5017557;28;19909;-79
2021/07/08 10:50:30;;;;;;;;;;;20.90;99.90;;;;;;5034883;28;19913;-79
2021/07/08 10:52:56;;;;;;;;;;;20.70;99.90;;;;;;5031203;28;19905;-78
2021/07/08 10:55:39;;;;;;;;;;;20.60;99.90;;;;;;5035542;28;19987;-79
2021/07/08 10:58:05;;;;;;;;;;;20.60;99.90;;;;;;5015602;28;20368;-79
2021/07/08 11:00:57;;;;;;;;;;;20.60;99.90;;;;;;5037368;28;19916;-78
2021/07/08 11:03:42;;;;;;;;;;;20.50;99.90;;;;;;5029039;28;20442;-79
2021/07/08 11:06:29;;;;;;;;;;;20.30;99.90;;;;;;5013630;28;19912;-79
2021/07/08 11:08:58;;;;;;;;;;;20.20;99.90;;;;;;5013065;28;19913;-79
2021/07/08 11:11:23;;;;;;;;;;;20.30;99.90;;;;;;4998501;28;19906;-79
2021/07/08 11:14:07;;;;;;;;;;;20.30;99.90;;;;;;4998051;28;20299;-79
2021/07/08 11:16:38;;;;;;;;;;;20.30;99.90;;;;;;5027918;28;19913;-79
2021/07/08 11:19:04;;;;;;;;;;;20.30;99.90;;;;;;5015611;28;19913;-78
2021/07/08 11:21:49;;;;;;;;;;;20.30;99.90;;;;;;5015297;28;19909;-78
2021/07/08 11:24:15;;;;;;;;;;;20.40;99.90;;;;;;5023463;28;19916;-79
2021/07/08 11:26:53;;;;;;;;;;;20.30;99.90;;;;;;5037693;28;19905;-78
2021/07/08 11:29:31;;;;;;;;;;;20.30;99.90;;;;;;5017367;28;20454;-78
2021/07/08 11:31:57;;;;;;;;;;;20.00;99.90;;;;;;5016382;28;19909;-78
2021/07/08 11:34:22;;;;;;;;;;;20.00;99.90;;;;;;5017972;28;19965;-78
2021/07/08 11:36:48;;;;;;;;;;;19.90;99.90;;;;;;5018035;28;19952;-78
2021/07/08 11:39:15;;;;;;;;;;;20.10;99.90;;;;;;5035815;28;19948;-78
2021/07/08 11:41:41;;;;;;;;;;;20.10;99.90;;;;;;5018075;28;19913;-78
2021/07/08 11:44:07;;;;;;;;;;;20.00;99.90;;;;;;5013961;28;19955;-79
2021/07/08 11:46:33;;;;;;;;;;;20.10;99.90;;;;;;5013992;28;19948;-79
2021/07/08 11:48:58;;;;;;;;;;;20.20;99.90;;;;;;5029944;28;19937;-78
2021/07/08 11:51:28;;;;;;;;;;;20.20;99.90;;;;;;5032966;28;19917;-78
2021/07/08 11:53:53;;;;;;;;;;;20.30;99.90;;;;;;5032877;28;19913;-79
2021/07/08 11:56:19;;;;;;;;;;;20.40;99.90;;;;;;5033165;28;19912;-78
2021/07/08 11:58:45;;;;;;;;;;;20.50;99.90;;;;;;5019210;28;19915;-79
2021/07/08 12:01:12;;;;;;;;;;;20.50;99.90;;;;;;5013687;28;19992;-80
2021/07/08 12:03:44;;;;;;;;;;;20.60;99.90;;;;;;5013245;28;19912;-79
2021/07/08 12:06:11;;;;;;;;;;;20.60;99.90;;;;;;5014550;28;20276;-79
2021/07/08 12:08:41;;;;;;;7.47;3.20;;;20.70;99.90;;;;;;5015178;28;25125;-78
2021/07/08 12:11:10;;;;;;;6.13;3.15;;;20.80;99.90;;;;;;5013724;28;20022;-79
2021/07/08 12:13:48;;;;;;;2.40;2.10;;;20.80;99.90;;;;;;5015860;28;20546;-79
2021/07/08 12:16:14;;;;;;;4.90;1.85;;;20.80;99.90;;;;;;5015244;28;20117;-80
2021/07/08 12:18:51;;;;;;;2.70;2.23;;;20.70;99.90;;;;;;5016953;28;20018;-79
2021/07/08 12:21:18;;;;;;;2.42;1.50;;;20.70;99.90;;;;;;5017190;28;20261;-78
2021/07/08 12:23:44;;;;;;;2.20;1.30;;;20.80;99.90;;;;;;5013716;28;19912;-79
2021/07/08 12:26:25;;;;;;;;;;;20.70;99.90;;;;;;5015926;28;20386;-78
2021/07/08 12:28:50;;;;;;;;;;;20.70;99.90;;;;;;5032279;28;20342;-78
2021/07/08 12:31:18;;;;;;;;;;;20.70;99.90;;;;;;5012331;28;19937;-78
2021/07/08 12:34:02;;;;;;;;;;;20.70;99.90;;;;;;5013973;28;19937;-79
2021/07/08 12:36:28;;;;;;;;;;;20.70;99.90;;;;;;5014622;28;20090;-80
2021/07/08 12:38:53;;;;;;;;;;;20.60;99.90;;;;;;5013555;28;20243;-80
2021/07/08 12:41:19;;;;;;;;;;;20.40;99.90;;;;;;5014181;28;20037;-79
2021/07/08 12:43:45;;;;;;;;;;;20.40;99.90;;;;;;5013233;28;20427;-79
2021/07/08 12:46:11;;;;;;;;;;;20.30;99.90;;;;;;5013807;28;20033;-79
2021/07/08 12:48:36;;;;;;;;;;;20.20;99.90;;;;;;5012090;28;20511;-78
2021/07/08 12:51:02;;;;;;;;;;;20.30;99.90;;;;;;5017287;28;20300;-78
2021/07/08 12:53:28;;;;;;;;;;;20.30;99.90;;;;;;5011025;28;19909;-78
2021/07/08 12:55:56;;;;;;;;;;;20.30;99.90;;;;;;5012570;28;20096;-79
2021/07/08 12:58:22;;;;;;;;;;;20.40;99.90;;;;;;5012890;28;20017;-78
2021/07/08 13:00:48;;;;;;;;;;;20.50;99.90;;;;;;5012048;28;19906;-79
2021/07/08 13:03:17;;;;;;;;;;;20.70;99.90;;;;;;5012064;28;19911;-79
2021/07/08 13:05:45;;;;;;;;;;;20.80;99.90;;;;;;5014364;28;19909;-78
2021/07/08 13:08:11;;;;;;;;;;;21.10;99.90;;;;;;5014817;28;24069;-78
2021/07/08 13:10:45;;;;;;;;;;;21.30;99.90;;;;;;5012470;28;19913;-79
2021/07/08 13:13:14;;;;;;;;;;;21.50;99.90;;;;;;5014000;28;19949;-79
2021/07/08 13:15:47;;;;;;;;;;;21.70;99.90;;;;;;5014225;28;19905;-79
2021/07/08 13:18:13;;;;;;;;;;;21.70;99.90;;;;;;5013401;28;19947;-79
2021/07/08 13:20:40;;;;;;;;;;;21.70;99.90;;;;;;5014095;28;20048;-78
2021/07/08 13:23:15;;;;;;;;;;;21.70;99.90;;;;;;5015501;28;19912;-80
2021/07/08 13:25:40;;;;;;;;;;;21.70;99.90;;;;;;5012674;28;19995;-80
2021/07/08 13:28:18;;;;;;;;;;;21.70;99.90;;;;;;5012815;28;19909;-79
2021/07/08 13:30:45;;;;;;;;;;;21.70;99.90;;;;;;5012799;28;19931;-78
2021/07/08 13:33:14;;;;;;;;;;;21.60;99.90;;;;;;5012073;28;19911;-78
2021/07/08 13:35:45;;;;;;;;;;;21.60;99.90;;;;;;5012140;28;19905;-80
2021/07/08 13:38:12;;;;;;;;;;;21.40;99.90;;;;;;5014053;28;19905;-80
2021/07/08 13:40:38;;;;;;;;;;;21.50;99.90;;;;;;5014325;28;24070;-79
2021/07/08 13:43:11;;;;;;;;;;;21.60;99.90;;;;;;5014409;28;19912;-79
2021/07/08 13:45:36;;;;;;;;;;;21.60;99.90;;;;;;5012990;28;19906;-79
2021/07/08 13:48:19;;;;;;;;;;;21.60;99.90;;;;;;5017424;28;19916;-79
2021/07/08 13:50:45;;;;;;;;;;;21.60;99.90;;;;;;5019412;28;25126;-80
2021/07/08 13:53:11;;;;;;;;;;;21.60;99.90;;;;;;5019185;28;19999;-79
2021/07/08 13:55:37;;;;;;;;;;;21.40;99.90;;;;;;5036248;28;20012;-80
2021/07/08 13:58:02;;;;;;;;;;;21.40;99.90;;;;;;5038644;28;19970;-79
2021/07/08 14:00:28;;;;;;;;;;;21.20;99.90;;;;;;5038851;28;19905;-79
2021/07/08 14:02:53;;;;;;;;;;;21.20;99.90;;;;;;5038061;28;24075;-79
2021/07/08 14:05:20;;;;;;;;;;;21.00;99.90;;;;;;5020504;28;19912;-78
2021/07/08 14:07:46;;;;;;;;;;;20.90;99.90;;;;;;5020737;28;19909;-80
2021/07/08 14:10:11;;;;;;;;;;;20.80;99.90;;;;;;5020731;28;19917;-79
2021/07/08 14:12:36;;;;;;;;;;;20.70;99.90;;;;;;5020810;28;19912;-78
2021/07/08 14:15:02;;;;;;;;;;;20.60;99.90;;;;;;5020557;28;19955;-79
2021/07/08 14:17:28;;;;;;;;;;;20.70;99.90;;;;;;5016846;28;19916;-80
2021/07/08 14:19:53;;;;;;;;;;;20.60;99.90;;;;;;5017000;28;19984;-78
2021/07/08 14:22:19;;;;;;;;;;;20.50;99.90;;;;;;5018432;28;20367;-79